sensor_id;sensor_type;location;lat;lon;timestamp;P1;durP1;ratioP1;P2;durP2;ratioP2
43861;SDS011;29510;52.140;5.034;2023-04-29T00:03:28;21.38;;;9.48;;
43861;SDS011;29510;52.140;5.034;2023-04-29T00:13:32;19.23;;;9.68;;
43861;SDS011;29510;52.140;5.034;2023-04-29T00:23:33;24.70;;;10.15;;
43861;SDS011;29510;52.140;5.034;2023-04-29T00:33:34;23.83;;;10.98;;
43861;SDS011;29510;52.140;5.034;2023-04-29T00:43:35;25.58;;;11.38;;
43861;SDS011;29510;52.140;5.034;2023-04-29T00:53:36;25.20;;;10.98;;
43861;SDS011;29510;52.140;5.034;2023-04-29T01:03:38;28.45;;;9.57;;
43861;SDS011;29510;52.140;5.034;2023-04-29T01:13:44;16.52;;;6.60;;
43861;SDS011;29510;52.140;5.034;2023-04-29T01:23:50;15.13;;;7.55;;
43861;SDS011;29510;52.140;5.034;2023-04-29T01:34:01;16.08;;;6.35;;
43861;SDS011;29510;52.140;5.034;2023-04-29T01:44:13;14.05;;;6.00;;
43861;SDS011;29510;52.140;5.034;2023-04-29T01:54:17;15.23;;;5.38;;
43861;SDS011;29510;52.140;5.034;2023-04-29T02:04:18;14.60;;;5.95;;
43861;SDS011;29510;52.140;5.034;2023-04-29T02:14:19;14.05;;;6.00;;
43861;SDS011;29510;52.140;5.034;2023-04-29T02:24:21;13.98;;;5.80;;
43861;SDS011;29510;52.140;5.034;2023-04-29T02:34:22;14.35;;;6.32;;
43861;SDS011;29510;52.140;5.034;2023-04-29T02:44:23;13.45;;;6.90;;
43861;SDS011;29510;52.140;5.034;2023-04-29T02:54:24;13.70;;;5.75;;
43861;SDS011;29510;52.140;5.034;2023-04-29T03:04:25;12.70;;;6.68;;
43861;SDS011;29510;52.140;5.034;2023-04-29T03:14:27;15.13;;;6.63;;
43861;SDS011;29510;52.140;5.034;2023-04-29T03:24:29;13.73;;;7.18;;
43861;SDS011;29510;52.140;5.034;2023-04-29T03:34:30;13.43;;;5.63;;
43861;SDS011;29510;52.140;5.034;2023-04-29T03:44:31;12.77;;;6.03;;
43861;SDS011;29510;52.140;5.034;2023-04-29T03:54:32;30.25;;;8.02;;
43861;SDS011;29510;52.140;5.034;2023-04-29T04:04:33;13.30;;;6.45;;
43861;SDS011;29510;52.140;5.034;2023-04-29T04:14:34;14.75;;;6.20;;
43861;SDS011;29510;52.140;5.034;2023-04-29T04:24:35;11.98;;;5.75;;
43861;SDS011;29510;52.140;5.034;2023-04-29T04:34:36;13.68;;;6.45;;
43861;SDS011;29510;52.140;5.034;2023-04-29T04:44:41;13.35;;;6.78;;
43861;SDS011;29510;52.140;5.034;2023-04-29T04:54:43;14.30;;;6.05;;
43861;SDS011;29510;52.140;5.034;2023-04-29T05:04:45;15.40;;;7.03;;
43861;SDS011;29510;52.140;5.034;2023-04-29T05:14:46;13.23;;;6.18;;
43861;SDS011;29510;52.140;5.034;2023-04-29T05:24:51;13.90;;;6.75;;
43861;SDS011;29510;52.140;5.034;2023-04-29T05:34:53;15.82;;;6.88;;
43861;SDS011;29510;52.140;5.034;2023-04-29T05:44:54;13.70;;;6.13;;
43861;SDS011;29510;52.140;5.034;2023-04-29T05:54:55;11.45;;;5.72;;
43861;SDS011;29510;52.140;5.034;2023-04-29T06:04:57;18.48;;;5.95;;
43861;SDS011;29510;52.140;5.034;2023-04-29T06:14:58;14.38;;;5.68;;
43861;SDS011;29510;52.140;5.034;2023-04-29T06:24:59;15.60;;;5.90;;
43861;SDS011;29510;52.140;5.034;2023-04-29T06:35:00;11.52;;;5.68;;
43861;SDS011;29510;52.140;5.034;2023-04-29T06:45:01;13.18;;;5.70;;
43861;SDS011;29510;52.140;5.034;2023-04-29T06:55:03;13.80;;;5.60;;
43861;SDS011;29510;52.140;5.034;2023-04-29T07:05:04;9.88;;;4.80;;
43861;SDS011;29510;52.140;5.034;2023-04-29T07:15:06;10.43;;;5.45;;
43861;SDS011;29510;52.140;5.034;2023-04-29T07:25:07;10.85;;;5.68;;
43861;SDS011;29510;52.140;5.034;2023-04-29T07:35:10;10.43;;;4.85;;
43861;SDS011;29510;52.140;5.034;2023-04-29T07:45:11;11.10;;;4.53;;
43861;SDS011;29510;52.140;5.034;2023-04-29T07:55:13;8.65;;;4.18;;
43861;SDS011;29510;52.140;5.034;2023-04-29T08:05:14;11.95;;;4.85;;
43861;SDS011;29510;52.140;5.034;2023-04-29T08:15:15;8.25;;;4.32;;
43861;SDS011;29510;52.140;5.034;2023-04-29T08:25:17;11.88;;;4.68;;
43861;SDS011;29510;52.140;5.034;2023-04-29T08:35:19;8.32;;;3.67;;
43861;SDS011;29510;52.140;5.034;2023-04-29T08:45:20;8.55;;;3.30;;
43861;SDS011;29510;52.140;5.034;2023-04-29T08:55:24;7.70;;;3.10;;
43861;SDS011;29510;52.140;5.034;2023-04-29T09:05:25;6.82;;;2.97;;
43861;SDS011;29510;52.140;5.034;2023-04-29T09:15:27;6.30;;;3.10;;
43861;SDS011;29510;52.140;5.034;2023-04-29T09:25:28;8.23;;;3.92;;
43861;SDS011;29510;52.140;5.034;2023-04-29T09:35:30;6.13;;;3.17;;
43861;SDS011;29510;52.140;5.034;2023-04-29T09:45:32;5.53;;;3.13;;
43861;SDS011;29510;52.140;5.034;2023-04-29T09:55:59;5.30;;;2.88;;
43861;SDS011;29510;52.140;5.034;2023-04-29T10:06:00;5.90;;;2.70;;
43861;SDS011;29510;52.140;5.034;2023-04-29T10:16:14;6.97;;;3.15;;
43861;SDS011;29510;52.140;5.034;2023-04-29T10:26:29;4.68;;;2.05;;
43861;SDS011;29510;52.140;5.034;2023-04-29T10:36:31;4.25;;;2.33;;
43861;SDS011;29510;52.140;5.034;2023-04-29T10:46:34;4.60;;;2.58;;
43861;SDS011;29510;52.140;5.034;2023-04-29T11:06:39;5.60;;;2.63;;
43861;SDS011;29510;52.140;5.034;2023-04-29T11:16:51;7.82;;;2.67;;
43861;SDS011;29510;52.140;5.034;2023-04-29T11:27:01;5.40;;;2.53;;
43861;SDS011;29510;52.140;5.034;2023-04-29T11:37:04;4.00;;;2.42;;
43861;SDS011;29510;52.140;5.034;2023-04-29T11:47:05;3.60;;;2.20;;
43861;SDS011;29510;52.140;5.034;2023-04-29T11:57:09;4.28;;;2.20;;
43861;SDS011;29510;52.140;5.034;2023-04-29T12:07:10;5.45;;;2.63;;
43861;SDS011;29510;52.140;5.034;2023-04-29T12:17:11;4.43;;;1.85;;
43861;SDS011;29510;52.140;5.034;2023-04-29T12:27:12;8.75;;;2.38;;
43861;SDS011;29510;52.140;5.034;2023-04-29T12:37:13;3.50;;;1.58;;
43861;SDS011;29510;52.140;5.034;2023-04-29T12:47:15;5.05;;;1.88;;
43861;SDS011;29510;52.140;5.034;2023-04-29T12:57:16;4.45;;;1.55;;
43861;SDS011;29510;52.140;5.034;2023-04-29T13:07:17;4.30;;;1.25;;
43861;SDS011;29510;52.140;5.034;2023-04-29T13:17:18;2.85;;;1.70;;
43861;SDS011;29510;52.140;5.034;2023-04-29T13:27:19;2.47;;;0.70;;
43861;SDS011;29510;52.140;5.034;2023-04-29T13:37:20;1.80;;;0.60;;
43861;SDS011;29510;52.140;5.034;2023-04-29T13:47:21;2.58;;;0.50;;
43861;SDS011;29510;52.140;5.034;2023-04-29T13:57:23;0.70;;;0.30;;
43861;SDS011;29510;52.140;5.034;2023-04-29T14:07:26;1.65;;;0.95;;
43861;SDS011;29510;52.140;5.034;2023-04-29T14:17:27;2.25;;;1.60;;
43861;SDS011;29510;52.140;5.034;2023-04-29T14:27:28;3.30;;;1.10;;
43861;SDS011;29510;52.140;5.034;2023-04-29T14:37:29;4.07;;;1.58;;
43861;SDS011;29510;52.140;5.034;2023-04-29T14:47:30;1.73;;;0.80;;
43861;SDS011;29510;52.140;5.034;2023-04-29T14:57:32;2.78;;;1.10;;
43861;SDS011;29510;52.140;5.034;2023-04-29T15:07:33;2.25;;;1.10;;
43861;SDS011;29510;52.140;5.034;2023-04-29T15:17:34;2.05;;;1.08;;
43861;SDS011;29510;52.140;5.034;2023-04-29T15:27:35;1.58;;;0.60;;
43861;SDS011;29510;52.140;5.034;2023-04-29T15:37:37;3.72;;;1.30;;
43861;SDS011;29510;52.140;5.034;2023-04-29T15:47:38;4.68;;;0.75;;
43861;SDS011;29510;52.140;5.034;2023-04-29T15:57:39;4.95;;;0.88;;
43861;SDS011;29510;52.140;5.034;2023-04-29T16:07:41;1.30;;;0.43;;
43861;SDS011;29510;52.140;5.034;2023-04-29T16:17:42;1.00;;;0.55;;
43861;SDS011;29510;52.140;5.034;2023-04-29T16:27:43;1.20;;;0.50;;
43861;SDS011;29510;52.140;5.034;2023-04-29T16:37:45;2.10;;;0.95;;
43861;SDS011;29510;52.140;5.034;2023-04-29T16:47:46;1.83;;;0.60;;
43861;SDS011;29510;52.140;5.034;2023-04-29T16:57:48;2.63;;;0.85;;
43861;SDS011;29510;52.140;5.034;2023-04-29T17:07:49;2.67;;;1.05;;
43861;SDS011;29510;52.140;5.034;2023-04-29T17:17:50;3.17;;;0.70;;
43861;SDS011;29510;52.140;5.034;2023-04-29T17:27:52;1.95;;;0.65;;
43861;SDS011;29510;52.140;5.034;2023-04-29T17:37:53;3.38;;;1.15;;
43861;SDS011;29510;52.140;5.034;2023-04-29T17:47:54;11.50;;;1.77;;
43861;SDS011;29510;52.140;5.034;2023-04-29T17:57:55;4.22;;;1.45;;
43861;SDS011;29510;52.140;5.034;2023-04-29T18:07:56;6.07;;;1.35;;
43861;SDS011;29510;52.140;5.034;2023-04-29T18:17:57;3.22;;;1.30;;
43861;SDS011;29510;52.140;5.034;2023-04-29T18:27:58;3.80;;;1.50;;
43861;SDS011;29510;52.140;5.034;2023-04-29T18:37:59;3.05;;;1.83;;
43861;SDS011;29510;52.140;5.034;2023-04-29T18:48:00;2.95;;;1.67;;
43861;SDS011;29510;52.140;5.034;2023-04-29T18:58:06;2.40;;;1.25;;
43861;SDS011;29510;52.140;5.034;2023-04-29T19:08:07;4.03;;;1.83;;
43861;SDS011;29510;52.140;5.034;2023-04-29T19:18:08;3.40;;;1.15;;
43861;SDS011;29510;52.140;5.034;2023-04-29T19:28:09;5.05;;;2.10;;
43861;SDS011;29510;52.140;5.034;2023-04-29T19:38:10;3.00;;;1.40;;
43861;SDS011;29510;52.140;5.034;2023-04-29T19:48:11;6.57;;;2.53;;
43861;SDS011;29510;52.140;5.034;2023-04-29T19:58:12;5.85;;;2.33;;
43861;SDS011;29510;52.140;5.034;2023-04-29T20:08:13;7.30;;;2.85;;
43861;SDS011;29510;52.140;5.034;2023-04-29T20:18:14;6.70;;;1.73;;
43861;SDS011;29510;52.140;5.034;2023-04-29T20:28:17;4.22;;;2.10;;
43861;SDS011;29510;52.140;5.034;2023-04-29T20:38:18;6.40;;;1.80;;
43861;SDS011;29510;52.140;5.034;2023-04-29T20:48:19;6.80;;;2.40;;
43861;SDS011;29510;52.140;5.034;2023-04-29T20:58:20;7.20;;;2.40;;
43861;SDS011;29510;52.140;5.034;2023-04-29T21:08:21;3.70;;;1.98;;
43861;SDS011;29510;52.140;5.034;2023-04-29T21:18:22;12.75;;;4.60;;
43861;SDS011;29510;52.140;5.034;2023-04-29T21:28:23;6.53;;;3.05;;
43861;SDS011;29510;52.140;5.034;2023-04-29T21:38:24;6.47;;;2.33;;
43861;SDS011;29510;52.140;5.034;2023-04-29T21:48:25;6.68;;;2.67;;
43861;SDS011;29510;52.140;5.034;2023-04-29T21:58:26;5.97;;;2.78;;
43861;SDS011;29510;52.140;5.034;2023-04-29T22:08:27;5.78;;;2.60;;
43861;SDS011;29510;52.140;5.034;2023-04-29T22:18:28;5.85;;;2.88;;
43861;SDS011;29510;52.140;5.034;2023-04-29T22:28:30;5.30;;;2.45;;
43861;SDS011;29510;52.140;5.034;2023-04-29T22:38:31;6.15;;;2.90;;
43861;SDS011;29510;52.140;5.034;2023-04-29T22:48:33;5.15;;;2.50;;
43861;SDS011;29510;52.140;5.034;2023-04-29T22:58:34;6.70;;;3.60;;
43861;SDS011;29510;52.140;5.034;2023-04-29T23:08:35;6.32;;;2.90;;
43861;SDS011;29510;52.140;5.034;2023-04-29T23:18:36;9.57;;;3.67;;
43861;SDS011;29510;52.140;5.034;2023-04-29T23:28:37;7.72;;;2.50;;
43861;SDS011;29510;52.140;5.034;2023-04-29T23:38:38;7.43;;;3.58;;
43861;SDS011;29510;52.140;5.034;2023-04-29T23:48:39;9.05;;;3.28;;
43861;SDS011;29510;52.140;5.034;2023-04-29T23:58:40;8.57;;;3.25;;
